createdAt,value
2023-01-29T00:02:08.303Z,3.70
2023-01-29T00:04:36.482Z,3.70
2023-01-29T00:07:04.515Z,3.60
2023-01-29T00:09:32.626Z,3.70
2023-01-29T00:12:00.759Z,3.60
2023-01-29T00:14:29.177Z,3.60
2023-01-29T00:16:58.635Z,3.60
2023-01-29T00:19:26.915Z,3.60
2023-01-29T00:21:55.133Z,3.70
2023-01-29T00:24:23.524Z,3.70
2023-01-29T00:26:51.585Z,3.70
2023-01-29T00:29:19.771Z,3.80
2023-01-29T00:31:47.866Z,3.80
2023-01-29T00:34:17.525Z,3.80
2023-01-29T00:36:46.341Z,3.90
2023-01-29T00:39:14.476Z,3.90
2023-01-29T00:42:00.240Z,3.90
2023-01-29T00:44:45.902Z,3.90
2023-01-29T00:47:27.845Z,4.00
2023-01-29T00:49:57.388Z,4.00
2023-01-29T00:52:25.660Z,4.00
2023-01-29T00:54:54.355Z,3.90
2023-01-29T00:57:22.485Z,3.90
2023-01-29T00:59:50.570Z,3.90
2023-01-29T01:02:36.709Z,3.80
2023-01-29T01:05:07.728Z,3.80
2023-01-29T01:07:35.826Z,3.80
2023-01-29T01:10:21.198Z,3.80
2023-01-29T01:12:51.775Z,3.80
2023-01-29T01:15:20.423Z,3.80
2023-01-29T01:17:49.627Z,3.80
2023-01-29T01:20:20.036Z,3.70
2023-01-29T01:22:48.072Z,3.70
2023-01-29T01:25:17.641Z,3.70
2023-01-29T01:27:45.903Z,3.70
2023-01-29T01:30:16.484Z,3.70
2023-01-29T01:32:44.775Z,3.70
2023-01-29T01:35:13.748Z,3.60
2023-01-29T01:37:43.393Z,3.60
2023-01-29T01:40:18.377Z,3.60
2023-01-29T01:42:48.623Z,3.60
2023-01-29T01:45:21.224Z,3.60
2023-01-29T01:47:52.613Z,3.50
2023-01-29T01:50:25.795Z,3.50
2023-01-29T01:53:00.909Z,3.40
2023-01-29T01:55:34.320Z,3.40
2023-01-29T01:58:08.766Z,3.30
2023-01-29T02:00:37.547Z,3.30
2023-01-29T02:03:24.106Z,3.20
2023-01-29T02:06:12.007Z,3.20
2023-01-29T02:09:04.716Z,3.10
2023-01-29T02:11:32.935Z,3.10
2023-01-29T02:14:01.036Z,3.00
2023-01-29T02:16:29.075Z,3.00
2023-01-29T02:18:57.512Z,3.00
2023-01-29T02:21:43.557Z,3.00
2023-01-29T02:24:48.771Z,2.90
2023-01-29T02:27:21.731Z,2.90
2023-01-29T02:30:02.025Z,2.90
2023-01-29T02:32:37.044Z,2.80
2023-01-29T02:35:28.088Z,2.80
2023-01-29T02:38:08.148Z,2.80
2023-01-29T02:40:44.113Z,2.70
2023-01-29T02:43:24.382Z,2.70
2023-01-29T02:46:00.250Z,2.70
2023-01-29T02:48:36.311Z,2.70
2023-01-29T02:51:07.808Z,2.60
2023-01-29T02:53:41.589Z,2.60
2023-01-29T02:56:14.500Z,2.60
2023-01-29T02:58:44.767Z,2.60
2023-01-29T03:01:19.167Z,2.60
2023-01-29T03:03:52.518Z,2.60
2023-01-29T03:06:26.284Z,2.60
2023-01-29T03:08:58.646Z,2.60
2023-01-29T03:11:32.092Z,2.60
2023-01-29T03:14:03.838Z,2.60
2023-01-29T03:16:38.748Z,2.60
2023-01-29T03:19:10.891Z,2.50
2023-01-29T03:21:55.191Z,2.50
2023-01-29T03:24:54.070Z,2.60
2023-01-29T03:27:44.492Z,2.60
2023-01-29T03:30:34.333Z,2.60
2023-01-29T03:33:07.604Z,2.60
2023-01-29T03:35:39.645Z,2.60
2023-01-29T03:38:10.974Z,2.50
2023-01-29T03:40:47.201Z,2.50
2023-01-29T03:43:27.489Z,2.50
2023-01-29T03:46:03.647Z,2.50
2023-01-29T03:48:37.794Z,2.40
2023-01-29T03:51:17.220Z,2.50
2023-01-29T03:53:50.828Z,2.40
2023-01-29T03:56:30.256Z,2.40
2023-01-29T03:59:03.714Z,2.40
2023-01-29T04:01:37.901Z,2.40
2023-01-29T04:04:15.707Z,2.40
2023-01-29T04:06:47.193Z,2.40
2023-01-29T04:09:22.282Z,2.40
2023-01-29T04:11:56.161Z,2.40
2023-01-29T04:14:25.585Z,2.40
2023-01-29T04:16:56.962Z,2.40
2023-01-29T04:19:26.629Z,2.40
2023-01-29T04:22:04.456Z,2.40
2023-01-29T04:24:33.093Z,2.40
2023-01-29T04:27:09.566Z,2.40
2023-01-29T04:29:46.687Z,2.30
2023-01-29T04:32:20.556Z,2.30
2023-01-29T04:35:01.838Z,2.30
2023-01-29T04:37:37.936Z,2.30
2023-01-29T04:40:16.533Z,2.30
2023-01-29T04:42:51.171Z,2.30
2023-01-29T04:45:25.620Z,2.30
2023-01-29T04:48:03.289Z,2.30
2023-01-29T04:50:39.348Z,2.30
2023-01-29T04:53:16.481Z,2.30
2023-01-29T04:55:48.810Z,2.30
2023-01-29T04:58:26.558Z,2.30
2023-01-29T05:00:55.841Z,2.30
2023-01-29T05:03:27.149Z,2.30
2023-01-29T05:05:58.513Z,2.20
2023-01-29T05:08:28.380Z,2.20
2023-01-29T05:10:58.183Z,2.20
2023-01-29T05:13:27.851Z,2.20
2023-01-29T05:16:00.607Z,2.10
2023-01-29T05:18:29.740Z,2.10
2023-01-29T05:21:04.226Z,2.10
2023-01-29T05:23:32.441Z,2.10
2023-01-29T05:26:00.612Z,2.10
2023-01-29T05:28:27.776Z,2.10
2023-01-29T05:30:57.632Z,2.10
2023-01-29T05:33:27.375Z,2.10
2023-01-29T05:35:55.794Z,2.10
2023-01-29T05:38:25.388Z,2.10
2023-01-29T05:40:54.068Z,2.10
2023-01-29T05:43:24.539Z,2.00
2023-01-29T05:45:56.623Z,2.00
2023-01-29T05:48:24.846Z,2.00
2023-01-29T05:50:53.374Z,2.00
2023-01-29T05:53:21.603Z,2.00
2023-01-29T05:55:51.142Z,2.00
2023-01-29T05:58:19.780Z,2.00
2023-01-29T06:00:47.963Z,2.00
2023-01-29T06:03:16.032Z,1.90
2023-01-29T06:05:44.169Z,1.90
2023-01-29T06:08:12.207Z,1.90
2023-01-29T06:10:40.288Z,1.90
2023-01-29T06:13:09.707Z,1.90
2023-01-29T06:15:40.723Z,1.90
2023-01-29T06:18:08.755Z,1.80
2023-01-29T06:20:36.820Z,1.80
2023-01-29T06:25:33.322Z,1.80
2023-01-29T06:28:01.341Z,1.80
2023-01-29T06:30:31.862Z,1.80
2023-01-29T06:33:01.659Z,1.80
2023-01-29T06:35:29.957Z,1.80
2023-01-29T06:37:58.097Z,1.80
2023-01-29T06:40:26.200Z,1.80
2023-01-29T06:42:54.204Z,1.80
2023-01-29T06:45:22.350Z,1.80
2023-01-29T06:47:51.764Z,1.80
2023-01-29T06:50:19.969Z,1.70
2023-01-29T06:52:48.008Z,1.70
2023-01-29T06:55:16.162Z,1.80
2023-01-29T06:57:44.171Z,1.80
2023-01-29T07:00:13.554Z,1.80
2023-01-29T07:02:41.565Z,1.90
2023-01-29T07:05:11.133Z,1.90
2023-01-29T07:07:39.166Z,1.90
2023-01-29T07:10:08.356Z,2.00
2023-01-29T07:12:36.417Z,2.00
2023-01-29T07:15:04.777Z,2.00
2023-01-29T07:17:32.820Z,2.00
2023-01-29T07:20:00.881Z,2.10
2023-01-29T07:22:30.260Z,2.10
2023-01-29T07:24:58.295Z,2.20
2023-01-29T07:27:26.340Z,2.20
2023-01-29T07:29:54.531Z,2.20
2023-01-29T07:32:22.584Z,2.30
2023-01-29T07:34:50.657Z,2.30
2023-01-29T07:37:18.670Z,2.40
2023-01-29T07:39:48.144Z,2.50
2023-01-29T07:42:16.179Z,2.50
2023-01-29T07:44:44.340Z,2.50
2023-01-29T07:47:13.238Z,2.60
2023-01-29T07:49:41.338Z,2.70
2023-01-29T07:52:09.414Z,2.80
2023-01-29T07:54:37.517Z,2.90
2023-01-29T07:57:06.923Z,2.90
2023-01-29T07:59:35.027Z,3.00
2023-01-29T08:02:03.074Z,3.20
2023-01-29T08:04:31.225Z,3.20
2023-01-29T08:06:59.315Z,3.30
2023-01-29T08:09:27.422Z,3.40
2023-01-29T08:11:55.456Z,3.50
2023-01-29T08:14:25.119Z,3.60
2023-01-29T08:16:53.172Z,3.80
2023-01-29T08:19:21.224Z,3.90
2023-01-29T08:21:49.893Z,4.00
2023-01-29T08:24:18.112Z,4.10
2023-01-29T08:26:46.169Z,4.20
2023-01-29T08:29:14.756Z,4.30
2023-01-29T08:31:44.152Z,4.30
2023-01-29T08:34:12.255Z,4.40
2023-01-29T08:36:40.490Z,4.50
2023-01-29T08:39:08.685Z,4.60
2023-01-29T08:41:36.717Z,4.70
2023-01-29T08:44:05.331Z,4.90
2023-01-29T08:46:33.497Z,5.00
2023-01-29T08:49:02.948Z,5.10
2023-01-29T08:51:31.079Z,5.20
2023-01-29T08:53:59.380Z,5.30
2023-01-29T08:56:27.525Z,5.40
2023-01-29T08:58:55.880Z,5.50
2023-01-29T09:01:24.337Z,5.60
2023-01-29T09:03:53.035Z,5.70
2023-01-29T09:06:22.505Z,5.80
2023-01-29T09:08:50.800Z,5.80
2023-01-29T09:11:18.856Z,5.90
2023-01-29T09:13:46.952Z,5.90
2023-01-29T09:16:15.033Z,5.90
2023-01-29T09:18:43.206Z,6.00
2023-01-29T09:21:11.273Z,6.00
2023-01-29T09:23:40.749Z,6.00
2023-01-29T09:26:09.230Z,6.00
2023-01-29T09:28:37.431Z,6.00
2023-01-29T09:31:05.874Z,6.00
2023-01-29T09:33:34.061Z,6.10
2023-01-29T09:36:04.550Z,6.10
2023-01-29T09:38:32.687Z,6.10
2023-01-29T09:41:09.841Z,6.20
2023-01-29T09:43:47.034Z,6.20
2023-01-29T09:46:22.181Z,6.20
2023-01-29T09:48:57.844Z,6.30
2023-01-29T09:51:30.283Z,6.30
2023-01-29T09:54:12.578Z,6.30
2023-01-29T09:56:44.856Z,6.30
2023-01-29T09:59:15.268Z,6.40
2023-01-29T10:01:50.855Z,6.40
2023-01-29T10:04:50.747Z,6.50
2023-01-29T10:07:43.417Z,6.70
2023-01-29T10:10:23.918Z,6.90
2023-01-29T10:13:07.780Z,7.20
2023-01-29T10:16:04.288Z,7.40
2023-01-29T10:18:51.582Z,7.70
2023-01-29T10:21:34.916Z,7.80
2023-01-29T10:24:17.924Z,8.00
2023-01-29T10:26:45.995Z,8.10
2023-01-29T10:29:20.498Z,8.20
2023-01-29T10:31:53.498Z,8.30
2023-01-29T10:34:28.976Z,8.40
2023-01-29T10:36:57.622Z,8.40
2023-01-29T10:39:27.981Z,8.60
2023-01-29T10:42:05.806Z,8.80
2023-01-29T10:44:49.523Z,9.00
2023-01-29T10:47:37.896Z,9.20
2023-01-29T10:50:20.432Z,9.40
2023-01-29T10:53:05.580Z,9.50
2023-01-29T10:55:47.373Z,9.70
2023-01-29T10:58:27.042Z,10.10
2023-01-29T11:00:56.458Z,10.30
2023-01-29T11:03:28.961Z,10.50
2023-01-29T11:06:02.612Z,10.60
2023-01-29T11:08:36.274Z,10.70
2023-01-29T11:11:09.090Z,10.90
2023-01-29T11:13:42.363Z,10.90
2023-01-29T11:16:12.515Z,11.00
2023-01-29T11:18:55.527Z,11.00
2023-01-29T11:21:24.495Z,11.10
2023-01-29T11:24:05.841Z,11.20
2023-01-29T11:26:37.184Z,11.30
2023-01-29T11:29:05.255Z,11.30
2023-01-29T11:31:39.556Z,11.20
2023-01-29T11:34:17.929Z,11.20
2023-01-29T11:36:47.034Z,11.30
2023-01-29T11:39:20.792Z,11.40
2023-01-29T11:41:54.073Z,11.40
2023-01-29T11:44:28.619Z,11.50
2023-01-29T11:47:00.261Z,11.40
2023-01-29T11:49:38.662Z,11.40
2023-01-29T11:52:10.400Z,11.30
2023-01-29T11:54:41.787Z,11.30
2023-01-29T11:57:26.656Z,11.30
2023-01-29T11:59:56.552Z,11.30
2023-01-29T12:02:35.498Z,11.40
2023-01-29T12:05:07.677Z,11.50
2023-01-29T12:07:36.246Z,11.90
2023-01-29T12:10:04.704Z,12.40
2023-01-29T12:12:36.633Z,12.90
2023-01-29T12:15:18.104Z,13.30
2023-01-29T12:18:05.383Z,14.00
2023-01-29T12:20:39.455Z,14.80
2023-01-29T12:23:20.937Z,15.80
2023-01-29T12:25:57.611Z,16.70
2023-01-29T12:28:37.497Z,17.60
2023-01-29T12:31:16.797Z,18.90
2023-01-29T12:36:27.549Z,20.00
2023-01-29T12:41:39.957Z,21.20
2023-01-29T12:46:44.147Z,22.20
2023-01-29T12:49:18.615Z,22.70
2023-01-29T12:51:55.823Z,22.80
2023-01-29T12:56:59.231Z,23.10
2023-01-29T12:59:36.226Z,23.10
2023-01-29T13:02:12.990Z,22.90
2023-01-29T13:04:46.568Z,22.70
2023-01-29T13:07:18.857Z,22.40
2023-01-29T13:09:51.801Z,22.40
2023-01-29T13:12:21.533Z,22.50
2023-01-29T13:14:55.393Z,22.80
2023-01-29T13:17:28.838Z,23.10
2023-01-29T13:20:04.894Z,23.40
2023-01-29T13:22:37.218Z,23.60
2023-01-29T13:25:06.375Z,23.70
2023-01-29T13:27:36.295Z,23.70
2023-01-29T13:30:05.623Z,23.60
2023-01-29T13:32:36.980Z,23.60
2023-01-29T13:35:15.384Z,23.30
2023-01-29T13:37:48.753Z,22.90
2023-01-29T13:40:24.448Z,22.40
2023-01-29T13:42:54.371Z,21.80
2023-01-29T13:45:24.812Z,21.10
2023-01-29T13:47:54.264Z,20.60
2023-01-29T13:50:31.919Z,20.00
2023-01-29T13:53:02.525Z,19.50
2023-01-29T13:55:33.580Z,19.20
2023-01-29T13:58:02.221Z,18.90
2023-01-29T14:01:01.160Z,18.70
2023-01-29T14:04:04.891Z,18.40
2023-01-29T14:06:51.953Z,18.10
2023-01-29T14:10:03.050Z,17.60
2023-01-29T14:12:44.380Z,17.20
2023-01-29T14:15:24.983Z,16.80
2023-01-29T14:18:00.536Z,16.40
2023-01-29T14:20:45.184Z,16.00
2023-01-29T14:23:27.373Z,15.80
2023-01-29T14:25:55.856Z,15.60
2023-01-29T14:28:27.164Z,15.50
2023-01-29T14:30:56.173Z,15.40
2023-01-29T14:33:29.028Z,15.30
2023-01-29T14:35:58.978Z,15.30
2023-01-29T14:38:30.592Z,15.30
2023-01-29T14:41:10.152Z,15.50
2023-01-29T14:43:38.304Z,15.70
2023-01-29T14:46:44.493Z,15.70
2023-01-29T14:49:12.870Z,15.70
2023-01-29T14:51:45.505Z,15.60
2023-01-29T14:54:26.393Z,15.60
2023-01-29T14:57:00.423Z,15.50
2023-01-29T14:59:34.732Z,15.50
2023-01-29T15:02:13.295Z,15.40
2023-01-29T15:04:45.695Z,15.30
2023-01-29T15:07:24.429Z,15.10
2023-01-29T15:10:13.559Z,14.80
2023-01-29T15:12:50.733Z,14.60
2023-01-29T15:15:27.469Z,14.50
2023-01-29T15:18:00.816Z,14.50
2023-01-29T15:20:32.892Z,14.60
2023-01-29T15:23:03.288Z,14.60
2023-01-29T15:25:37.691Z,14.40
2023-01-29T15:28:10.211Z,14.10
2023-01-29T15:30:39.207Z,13.70
2023-01-29T15:33:11.560Z,13.30
2023-01-29T15:35:42.449Z,12.90
2023-01-29T15:38:17.298Z,12.60
2023-01-29T15:40:54.998Z,12.30
2023-01-29T15:43:24.792Z,12.00
2023-01-29T15:45:54.793Z,11.70
2023-01-29T15:48:29.751Z,11.50
2023-01-29T15:50:59.680Z,11.30
2023-01-29T15:53:33.643Z,11.10
2023-01-29T15:56:03.404Z,10.90
2023-01-29T15:58:33.264Z,10.70
2023-01-29T16:01:02.366Z,10.50
2023-01-29T16:03:34.243Z,10.30
2023-01-29T16:06:03.046Z,10.20
2023-01-29T16:08:31.242Z,10.00
2023-01-29T16:11:01.324Z,9.90
2023-01-29T16:13:33.637Z,9.70
2023-01-29T16:16:04.478Z,9.60
2023-01-29T16:18:36.220Z,9.50
2023-01-29T16:21:09.048Z,9.30
2023-01-29T16:23:43.555Z,9.20
2023-01-29T16:26:18.395Z,9.10
2023-01-29T16:28:48.662Z,9.00
2023-01-29T16:31:23.336Z,8.80
2023-01-29T16:33:51.687Z,8.70
2023-01-29T16:36:22.121Z,8.60
2023-01-29T16:38:54.214Z,8.50
2023-01-29T16:41:32.060Z,8.40
2023-01-29T16:44:03.504Z,8.30
2023-01-29T16:46:37.024Z,8.10
2023-01-29T16:49:46.701Z,8.00
2023-01-29T16:52:21.143Z,7.90
2023-01-29T16:54:49.258Z,7.80
2023-01-29T16:57:20.850Z,7.70
2023-01-29T16:59:51.131Z,7.60
2023-01-29T17:02:25.406Z,7.50
2023-01-29T17:04:55.624Z,7.50
2023-01-29T17:07:24.435Z,7.40
2023-01-29T17:09:55.683Z,7.30
2023-01-29T17:12:27.161Z,7.30
2023-01-29T17:14:58.163Z,7.20
2023-01-29T17:17:31.447Z,7.10
2023-01-29T17:20:00.137Z,7.00
2023-01-29T17:22:28.145Z,6.90
2023-01-29T17:24:56.209Z,6.80
2023-01-29T17:27:24.499Z,6.80
2023-01-29T17:29:53.500Z,6.70
2023-01-29T17:32:23.044Z,6.70
2023-01-29T17:34:52.529Z,6.60
2023-01-29T17:37:20.576Z,6.60
2023-01-29T17:39:50.527Z,6.50
2023-01-29T17:42:18.623Z,6.50
2023-01-29T17:44:46.741Z,6.50
2023-01-29T17:47:16.079Z,6.50
2023-01-29T17:49:45.530Z,6.40
2023-01-29T17:52:13.536Z,6.40
2023-01-29T17:54:41.609Z,6.40
2023-01-29T17:57:19.196Z,6.30
2023-01-29T17:59:47.334Z,6.30
2023-01-29T18:02:29.760Z,6.30
2023-01-29T18:04:59.496Z,6.20
2023-01-29T18:07:27.547Z,6.20
2023-01-29T18:09:55.636Z,6.20
2023-01-29T18:12:23.680Z,6.10
2023-01-29T18:14:51.795Z,6.10
2023-01-29T18:17:22.331Z,6.00
2023-01-29T18:19:50.716Z,6.00
2023-01-29T18:22:20.160Z,6.00
2023-01-29T18:24:48.218Z,6.00
2023-01-29T18:29:44.624Z,5.90
2023-01-29T18:32:12.832Z,5.80
2023-01-29T18:34:42.063Z,5.80
2023-01-29T18:37:12.211Z,5.80
2023-01-29T18:39:42.447Z,5.70
2023-01-29T18:42:10.459Z,5.70
2023-01-29T18:44:38.631Z,5.60
2023-01-29T18:47:06.731Z,5.60
2023-01-29T18:49:38.962Z,5.60
2023-01-29T18:52:11.170Z,5.50
2023-01-29T18:54:39.233Z,5.50
2023-01-29T18:57:14.180Z,5.50
2023-01-29T18:59:44.905Z,5.40
2023-01-29T19:02:15.309Z,5.40
2023-01-29T19:04:43.905Z,5.30
2023-01-29T19:07:12.218Z,5.30
2023-01-29T19:09:42.165Z,5.30
2023-01-29T19:12:11.702Z,5.30
2023-01-29T19:14:39.784Z,5.20
2023-01-29T19:17:07.939Z,5.20
2023-01-29T19:19:36.302Z,5.10
2023-01-29T19:22:04.331Z,5.10
2023-01-29T19:24:36.320Z,5.10
2023-01-29T19:27:05.843Z,5.10
2023-01-29T19:29:35.788Z,5.00
2023-01-29T19:32:03.875Z,5.00
2023-01-29T19:34:31.921Z,5.00
2023-01-29T19:36:59.948Z,5.00
2023-01-29T19:39:33.561Z,4.90
2023-01-29T19:42:01.764Z,4.90
2023-01-29T19:44:29.863Z,4.90
2023-01-29T19:46:59.273Z,4.80
2023-01-29T19:49:27.721Z,4.80
2023-01-29T19:51:58.794Z,4.80
2023-01-29T19:54:27.779Z,4.80
2023-01-29T19:56:55.822Z,4.70
2023-01-29T19:59:23.993Z,4.70
2023-01-29T20:01:52.066Z,4.70
2023-01-29T20:04:21.487Z,4.70
2023-01-29T20:06:49.672Z,4.70
2023-01-29T20:09:17.915Z,4.60
2023-01-29T20:11:45.962Z,4.60
2023-01-29T20:14:14.034Z,4.60
2023-01-29T20:16:42.094Z,4.60
2023-01-29T20:21:47.895Z,4.60
2023-01-29T20:24:16.160Z,4.50
2023-01-29T20:26:44.270Z,4.50
2023-01-29T20:29:13.402Z,4.50
2023-01-29T20:31:41.558Z,4.40
2023-01-29T20:34:09.809Z,4.40
2023-01-29T20:36:37.873Z,4.50
2023-01-29T20:39:07.395Z,4.40
2023-01-29T20:41:36.757Z,4.40
2023-01-29T20:44:04.886Z,4.40
2023-01-29T20:46:35.112Z,4.40
2023-01-29T20:49:03.417Z,4.40
2023-01-29T20:51:31.826Z,4.30
2023-01-29T20:54:00.192Z,4.30
2023-01-29T20:56:41.819Z,4.30
2023-01-29T20:59:11.824Z,4.30
2023-01-29T21:01:39.930Z,4.30
2023-01-29T21:04:08.018Z,4.20
2023-01-29T21:06:36.134Z,4.20
2023-01-29T21:09:04.444Z,4.20
2023-01-29T21:11:34.477Z,4.20
2023-01-29T21:14:02.548Z,4.20
2023-01-29T21:16:31.281Z,4.20
2023-01-29T21:18:59.867Z,4.20
2023-01-29T21:21:28.014Z,4.20
2023-01-29T21:23:56.331Z,4.10
2023-01-29T21:26:24.514Z,4.20
2023-01-29T21:28:53.987Z,4.10
2023-01-29T21:31:22.140Z,4.10
2023-01-29T21:33:50.285Z,4.10
2023-01-29T21:36:18.374Z,4.10
2023-01-29T21:38:46.493Z,4.00
2023-01-29T21:41:14.578Z,4.00
2023-01-29T21:43:41.673Z,4.00
2023-01-29T21:46:12.504Z,4.00
2023-01-29T21:48:41.348Z,4.00
2023-01-29T21:51:09.406Z,4.00
2023-01-29T21:53:37.742Z,4.00
2023-01-29T21:56:07.187Z,3.90
2023-01-29T21:58:35.463Z,4.00
2023-01-29T22:01:34.538Z,3.90
2023-01-29T22:03:53.044Z,3.90
2023-01-29T22:06:21.068Z,3.90
2023-01-29T22:08:49.953Z,3.90
2023-01-29T22:11:18.263Z,3.90
2023-01-29T22:13:46.875Z,3.80
2023-01-29T22:16:14.891Z,3.80
2023-01-29T22:18:42.979Z,3.80
2023-01-29T22:21:12.366Z,3.80
2023-01-29T22:23:40.495Z,3.80
2023-01-29T22:26:09.909Z,3.80
2023-01-29T22:28:38.091Z,3.80
2023-01-29T22:31:06.889Z,3.80
2023-01-29T22:33:35.283Z,3.70
2023-01-29T22:36:03.547Z,3.70
2023-01-29T22:38:33.257Z,3.70
2023-01-29T22:41:02.014Z,3.70
2023-01-29T22:43:30.256Z,3.70
2023-01-29T22:45:58.464Z,3.70
2023-01-29T22:48:26.910Z,3.70
2023-01-29T22:51:09.332Z,3.70
2023-01-29T22:53:39.576Z,3.70
2023-01-29T22:56:08.695Z,3.70
2023-01-29T22:58:36.837Z,3.70
2023-01-29T23:01:05.365Z,3.70
2023-01-29T23:03:33.488Z,3.70
2023-01-29T23:06:01.632Z,3.60
2023-01-29T23:08:29.768Z,3.60
2023-01-29T23:11:13.763Z,3.60
2023-01-29T23:13:43.259Z,3.60
2023-01-29T23:16:11.486Z,3.60
2023-01-29T23:18:39.761Z,3.60
2023-01-29T23:21:08.066Z,3.60
2023-01-29T23:23:37.737Z,3.60
2023-01-29T23:26:26.415Z,3.50
2023-01-29T23:28:54.541Z,3.50
2023-01-29T23:31:22.641Z,3.50
2023-01-29T23:33:50.732Z,3.50
2023-01-29T23:36:18.955Z,3.50
2023-01-29T23:38:46.999Z,3.50
2023-01-29T23:41:16.414Z,3.50
2023-01-29T23:43:44.469Z,3.50
2023-01-29T23:46:12.524Z,3.50
2023-01-29T23:48:40.741Z,3.40
2023-01-29T23:51:08.765Z,3.40
2023-01-29T23:53:36.857Z,3.40
2023-01-29T23:56:06.458Z,3.40
2023-01-29T23:58:36.142Z,3.40
